createdAt,value
2022-09-23T00:01:10.098Z,100.00
2022-09-23T00:03:39.166Z,100.00
2022-09-23T00:06:11.712Z,100.00
2022-09-23T00:08:39.468Z,100.00
2022-09-23T00:11:08.145Z,100.00
2022-09-23T00:13:36.384Z,100.00
2022-09-23T00:16:07.456Z,100.00
2022-09-23T00:18:34.360Z,100.00
2022-09-23T00:21:05.564Z,100.00
2022-09-23T00:23:33.028Z,100.00
2022-09-23T00:26:01.858Z,100.00
2022-09-23T00:28:28.771Z,100.00
2022-09-23T00:30:55.349Z,100.00
2022-09-23T00:33:22.186Z,100.00
2022-09-23T00:35:49.881Z,100.00
2022-09-23T00:38:17.199Z,100.00
2022-09-23T00:40:46.139Z,100.00
2022-09-23T00:43:14.842Z,100.00
2022-09-23T00:45:46.966Z,100.00
2022-09-23T00:48:20.624Z,100.00
2022-09-23T00:50:54.290Z,100.00
2022-09-23T00:53:26.608Z,100.00
2022-09-23T00:56:00.601Z,100.00
2022-09-23T00:58:32.626Z,100.00
2022-09-23T01:01:00.694Z,100.00
2022-09-23T01:03:28.144Z,100.00
2022-09-23T01:05:56.013Z,100.00
2022-09-23T01:08:23.882Z,100.00
2022-09-23T01:11:27.613Z,100.00
2022-09-23T01:14:16.685Z,100.00
2022-09-23T01:16:55.641Z,100.00
2022-09-23T01:19:34.247Z,100.00
2022-09-23T01:22:28.223Z,100.00
2022-09-23T01:25:25.893Z,100.00
2022-09-23T01:28:05.586Z,100.00
2022-09-23T01:31:07.630Z,100.00
2022-09-23T01:33:34.673Z,100.00
2022-09-23T01:36:19.217Z,100.00
2022-09-23T01:39:13.048Z,100.00
2022-09-23T01:41:45.484Z,100.00
2022-09-23T01:44:21.933Z,100.00
2022-09-23T01:46:52.992Z,100.00
2022-09-23T01:49:27.712Z,100.00
2022-09-23T01:52:03.568Z,100.00
2022-09-23T01:54:38.934Z,100.00
2022-09-23T01:57:13.529Z,100.00
2022-09-23T01:59:54.970Z,100.00
2022-09-23T02:02:30.808Z,100.00
2022-09-23T02:05:00.437Z,100.00
2022-09-23T02:07:29.727Z,100.00
2022-09-23T02:10:13.528Z,100.00
2022-09-23T02:12:45.603Z,100.00
2022-09-23T02:15:17.017Z,100.00
2022-09-23T02:17:55.680Z,100.00
2022-09-23T02:20:31.004Z,100.00
2022-09-23T02:23:07.690Z,100.00
2022-09-23T02:25:57.370Z,100.00
2022-09-23T02:28:41.932Z,100.00
2022-09-23T02:31:13.191Z,100.00
2022-09-23T02:33:52.806Z,100.00
2022-09-23T02:36:27.792Z,100.00
2022-09-23T02:38:57.834Z,100.00
2022-09-23T02:41:52.000Z,100.00
2022-09-23T02:44:20.077Z,100.00
2022-09-23T02:46:47.033Z,100.00
2022-09-23T02:49:20.598Z,100.00
2022-09-23T02:51:47.196Z,100.00
2022-09-23T02:54:18.667Z,100.00
2022-09-23T02:56:45.517Z,100.00
2022-09-23T02:59:13.103Z,100.00
2022-09-23T03:01:54.356Z,100.00
2022-09-23T03:05:05.232Z,100.00
2022-09-23T03:08:12.914Z,100.00
2022-09-23T03:10:59.587Z,100.00
2022-09-23T03:14:27.812Z,100.00
2022-09-23T03:17:07.472Z,100.00
2022-09-23T03:19:48.428Z,100.00
2022-09-23T03:22:25.132Z,100.00
2022-09-23T03:24:54.266Z,100.00
2022-09-23T03:27:25.873Z,100.00
2022-09-23T03:29:54.335Z,100.00
2022-09-23T03:32:24.818Z,100.00
2022-09-23T03:34:54.269Z,100.00
2022-09-23T03:37:26.360Z,100.00
2022-09-23T03:40:19.416Z,100.00
2022-09-23T03:42:48.945Z,100.00
2022-09-23T03:45:20.398Z,100.00
2022-09-23T03:47:47.108Z,100.00
2022-09-23T03:50:14.465Z,100.00
2022-09-23T03:52:41.085Z,100.00
2022-09-23T03:55:08.195Z,100.00
2022-09-23T03:57:35.019Z,100.00
2022-09-23T04:00:01.850Z,100.00
2022-09-23T04:02:28.422Z,100.00
2022-09-23T04:04:56.112Z,100.00
2022-09-23T04:07:22.691Z,100.00
2022-09-23T04:09:49.201Z,100.00
2022-09-23T04:12:16.853Z,100.00
2022-09-23T04:14:44.012Z,100.00
2022-09-23T04:17:11.297Z,100.00
2022-09-23T04:19:37.832Z,100.00
2022-09-23T04:22:05.252Z,100.00
2022-09-23T04:24:31.793Z,100.00
2022-09-23T04:26:58.439Z,100.00
2022-09-23T04:29:25.572Z,100.00
2022-09-23T04:31:53.000Z,100.00
2022-09-23T04:34:20.449Z,100.00
2022-09-23T04:36:48.721Z,100.00
2022-09-23T04:39:16.750Z,100.00
2022-09-23T04:41:44.750Z,100.00
2022-09-23T04:44:12.638Z,100.00
2022-09-23T04:46:43.367Z,100.00
2022-09-23T04:49:10.057Z,100.00
2022-09-23T04:51:36.640Z,100.00
2022-09-23T04:54:03.210Z,100.00
2022-09-23T04:56:34.249Z,100.00
2022-09-23T04:59:01.873Z,100.00
2022-09-23T05:01:34.640Z,100.00
2022-09-23T05:04:14.045Z,100.00
2022-09-23T05:06:44.118Z,100.00
2022-09-23T05:09:17.265Z,100.00
2022-09-23T05:11:45.504Z,100.00
2022-09-23T05:14:12.155Z,100.00
2022-09-23T05:16:38.745Z,100.00
2022-09-23T05:19:05.664Z,100.00
2022-09-23T05:21:32.289Z,100.00
2022-09-23T05:24:00.778Z,100.00
2022-09-23T05:26:30.552Z,100.00
2022-09-23T05:28:58.466Z,100.00
2022-09-23T05:31:27.418Z,100.00
2022-09-23T05:34:04.810Z,100.00
2022-09-23T05:36:37.882Z,100.00
2022-09-23T05:39:06.570Z,100.00
2022-09-23T05:41:33.988Z,100.00
2022-09-23T05:44:01.276Z,100.00
2022-09-23T05:46:29.950Z,100.00
2022-09-23T05:49:02.076Z,100.00
2022-09-23T05:51:31.404Z,100.00
2022-09-23T05:53:59.159Z,95.31
2022-09-23T05:56:27.744Z,92.26
2022-09-23T05:58:57.054Z,88.95
2022-09-23T06:01:26.638Z,88.44
2022-09-23T06:03:55.392Z,85.17
2022-09-23T06:06:27.964Z,82.72
2022-09-23T06:08:54.500Z,81.94
2022-09-23T06:11:21.589Z,81.34
2022-09-23T06:13:49.436Z,83.49
2022-09-23T06:16:16.504Z,83.52
2022-09-23T06:18:45.166Z,85.46
2022-09-23T06:21:17.449Z,85.95
2022-09-23T06:23:45.043Z,86.71
2022-09-23T06:26:13.931Z,87.32
2022-09-23T06:28:43.785Z,88.96
2022-09-23T06:31:15.415Z,89.81
2022-09-23T06:33:43.296Z,91.83
2022-09-23T06:36:10.678Z,89.72
2022-09-23T06:38:41.962Z,90.69
2022-09-23T06:41:09.124Z,90.14
2022-09-23T06:43:35.877Z,91.20
2022-09-23T06:46:05.921Z,92.47
2022-09-23T06:48:35.297Z,89.49
2022-09-23T06:51:04.932Z,90.39
2022-09-23T06:53:32.350Z,90.26
2022-09-23T06:56:11.401Z,91.76
2022-09-23T06:58:39.026Z,88.55
2022-09-23T07:01:08.322Z,88.42
2022-09-23T07:03:35.561Z,88.14
2022-09-23T07:06:02.948Z,87.70
2022-09-23T07:08:30.916Z,88.71
2022-09-23T07:10:59.830Z,90.46
2022-09-23T07:13:27.493Z,90.53
2022-09-23T07:15:58.320Z,88.31
2022-09-23T07:18:26.847Z,88.12
2022-09-23T07:20:54.750Z,87.22
2022-09-23T07:23:21.316Z,87.78
2022-09-23T07:25:49.522Z,86.19
2022-09-23T07:28:16.056Z,86.56
2022-09-23T07:30:56.239Z,84.57
2022-09-23T07:33:32.992Z,84.03
2022-09-23T07:36:11.136Z,83.98
2022-09-23T07:38:44.242Z,85.08
2022-09-23T07:41:14.382Z,83.18
2022-09-23T07:43:41.247Z,85.23
2022-09-23T07:46:11.175Z,82.88
2022-09-23T07:48:38.693Z,81.68
2022-09-23T07:51:16.529Z,81.52
2022-09-23T07:53:43.296Z,81.60
2022-09-23T07:56:10.026Z,80.56
2022-09-23T07:58:36.609Z,79.64
2022-09-23T08:01:09.037Z,78.23
2022-09-23T08:03:36.356Z,76.85
2022-09-23T08:06:08.611Z,77.32
2022-09-23T08:08:35.875Z,77.07
2022-09-23T08:11:04.408Z,77.53
2022-09-23T08:13:31.013Z,77.78
2022-09-23T08:15:58.334Z,75.75
2022-09-23T08:18:25.573Z,76.42
2022-09-23T08:20:52.302Z,76.96
2022-09-23T08:23:19.936Z,77.89
2022-09-23T08:25:47.320Z,76.28
2022-09-23T08:28:18.761Z,76.22
2022-09-23T08:30:48.364Z,75.82
2022-09-23T08:33:19.672Z,74.14
2022-09-23T08:35:49.349Z,73.82
2022-09-23T08:38:16.264Z,74.93
2022-09-23T08:40:45.044Z,74.73
2022-09-23T08:43:22.805Z,74.90
2022-09-23T08:45:51.158Z,72.69
2022-09-23T08:48:28.587Z,73.74
2022-09-23T08:51:11.387Z,74.52
2022-09-23T08:53:38.814Z,73.22
2022-09-23T08:56:17.339Z,73.99
2022-09-23T08:58:49.326Z,74.07
2022-09-23T09:01:41.818Z,72.04
2022-09-23T09:04:14.557Z,72.54
2022-09-23T09:06:53.531Z,72.21
2022-09-23T09:09:30.411Z,71.43
2022-09-23T09:12:11.502Z,70.41
2022-09-23T09:14:50.200Z,70.70
2022-09-23T09:17:48.798Z,68.17
2022-09-23T09:20:17.269Z,69.07
2022-09-23T09:22:52.816Z,68.84
2022-09-23T09:25:37.984Z,67.08
2022-09-23T09:28:30.913Z,67.57
2022-09-23T09:31:01.350Z,66.85
2022-09-23T09:33:45.595Z,64.10
2022-09-23T09:36:23.749Z,64.41
2022-09-23T09:38:51.277Z,64.29
2022-09-23T09:41:21.468Z,64.21
2022-09-23T09:43:53.448Z,64.43
2022-09-23T09:46:36.415Z,62.05
2022-09-23T09:49:12.010Z,62.30
2022-09-23T09:51:41.238Z,63.31
2022-09-23T09:54:23.297Z,64.18
2022-09-23T09:56:51.810Z,62.55
2022-09-23T09:59:25.827Z,62.62
2022-09-23T10:02:32.647Z,62.20
2022-09-23T10:05:02.410Z,62.16
2022-09-23T10:07:31.760Z,61.38
2022-09-23T10:10:28.915Z,59.81
2022-09-23T10:13:15.711Z,60.63
2022-09-23T10:15:45.171Z,56.75
2022-09-23T10:18:28.412Z,55.20
2022-09-23T10:21:08.421Z,56.18
2022-09-23T10:23:40.913Z,57.16
2022-09-23T10:26:12.358Z,56.56
2022-09-23T10:28:47.041Z,56.09
2022-09-23T10:31:24.696Z,56.58
2022-09-23T10:34:00.449Z,55.22
2022-09-23T10:36:29.468Z,54.42
2022-09-23T10:39:23.267Z,55.05
2022-09-23T10:42:37.765Z,53.37
2022-09-23T10:45:43.320Z,50.69
2022-09-23T10:48:27.201Z,51.83
2022-09-23T10:50:55.530Z,50.56
2022-09-23T10:53:57.102Z,50.95
2022-09-23T10:56:31.458Z,50.41
2022-09-23T10:59:01.050Z,48.77
2022-09-23T11:01:31.055Z,49.05
2022-09-23T11:04:33.218Z,47.69
2022-09-23T11:07:25.860Z,46.80
2022-09-23T11:10:28.993Z,46.70
2022-09-23T11:13:11.661Z,46.93
2022-09-23T11:15:56.797Z,47.77
2022-09-23T11:18:34.604Z,46.92
2022-09-23T11:21:12.960Z,47.02
2022-09-23T11:24:07.104Z,41.45
2022-09-23T11:26:42.116Z,42.07
2022-09-23T11:29:35.390Z,42.47
2022-09-23T11:32:08.884Z,43.31
2022-09-23T11:35:13.620Z,42.72
2022-09-23T11:37:48.203Z,42.11
2022-09-23T11:40:35.475Z,42.58
2022-09-23T11:43:23.562Z,41.51
2022-09-23T11:45:58.969Z,42.43
2022-09-23T11:48:38.106Z,44.08
2022-09-23T11:51:19.726Z,43.74
2022-09-23T11:53:55.961Z,42.84
2022-09-23T11:56:35.197Z,42.16
2022-09-23T11:59:11.462Z,39.63
2022-09-23T12:01:47.361Z,39.91
2022-09-23T12:04:25.989Z,39.42
2022-09-23T12:07:01.114Z,37.17
2022-09-23T12:09:58.568Z,38.39
2022-09-23T12:12:39.422Z,38.52
2022-09-23T12:15:34.424Z,37.59
2022-09-23T12:18:48.685Z,37.25
2022-09-23T12:21:51.563Z,36.52
2022-09-23T12:24:39.313Z,36.95
2022-09-23T12:27:11.425Z,36.40
2022-09-23T12:29:40.428Z,37.41
2022-09-23T12:32:10.083Z,37.62
2022-09-23T12:34:47.933Z,38.32
2022-09-23T12:37:25.382Z,37.06
2022-09-23T12:39:52.399Z,37.84
2022-09-23T12:42:22.321Z,37.08
2022-09-23T12:44:50.613Z,38.44
2022-09-23T12:47:21.219Z,37.07
2022-09-23T12:49:48.603Z,38.61
2022-09-23T12:52:18.220Z,42.41
2022-09-23T12:54:47.043Z,43.28
2022-09-23T12:57:33.827Z,44.01
2022-09-23T13:00:13.319Z,44.33
2022-09-23T13:03:13.537Z,44.74
2022-09-23T13:06:06.136Z,44.06
2022-09-23T13:08:37.863Z,43.92
2022-09-23T13:11:08.565Z,43.42
2022-09-23T13:13:44.676Z,43.40
2022-09-23T13:16:29.614Z,44.54
2022-09-23T13:19:01.221Z,45.22
2022-09-23T13:21:43.019Z,45.62
2022-09-23T13:24:22.344Z,45.45
2022-09-23T13:27:02.089Z,46.13
2022-09-23T13:29:41.017Z,46.17
2022-09-23T13:32:12.794Z,46.56
2022-09-23T13:34:41.506Z,47.06
2022-09-23T13:37:21.603Z,47.34
2022-09-23T13:39:49.231Z,47.06
2022-09-23T13:42:28.660Z,47.52
2022-09-23T13:44:59.093Z,46.53
2022-09-23T13:47:29.439Z,46.92
2022-09-23T13:49:56.488Z,47.28
2022-09-23T13:52:32.880Z,45.27
2022-09-23T13:54:59.685Z,45.15
2022-09-23T13:57:29.463Z,45.77
2022-09-23T14:00:17.597Z,44.41
2022-09-23T14:02:44.484Z,44.72
2022-09-23T14:05:12.655Z,45.61
2022-09-23T14:07:39.776Z,45.91
2022-09-23T14:10:08.095Z,45.45
2022-09-23T14:12:39.395Z,45.35
2022-09-23T14:15:07.361Z,45.89
2022-09-23T14:17:33.937Z,45.50
2022-09-23T14:20:01.087Z,45.53
2022-09-23T14:22:29.854Z,46.15
2022-09-23T14:24:57.500Z,46.55
2022-09-23T14:27:28.879Z,45.55
2022-09-23T14:29:56.115Z,45.60
2022-09-23T14:32:27.572Z,45.92
2022-09-23T14:35:00.185Z,43.88
2022-09-23T14:37:56.775Z,43.33
2022-09-23T14:40:29.331Z,44.68
2022-09-23T14:43:02.270Z,43.59
2022-09-23T14:45:33.259Z,43.32
2022-09-23T14:48:04.903Z,44.42
2022-09-23T14:50:47.256Z,45.15
2022-09-23T14:53:22.815Z,43.91
2022-09-23T14:55:57.410Z,44.55
2022-09-23T14:58:28.090Z,45.18
2022-09-23T15:00:56.543Z,46.50
2022-09-23T15:03:23.674Z,46.79
2022-09-23T15:05:57.906Z,46.78
2022-09-23T15:08:27.628Z,47.47
2022-09-23T15:10:54.954Z,48.48
2022-09-23T15:13:27.361Z,48.87
2022-09-23T15:15:55.579Z,48.77
2022-09-23T15:18:28.160Z,50.01
2022-09-23T15:20:58.051Z,49.79
2022-09-23T15:23:36.330Z,48.74
2022-09-23T15:26:09.979Z,48.15
2022-09-23T15:28:36.530Z,49.39
2022-09-23T15:31:05.687Z,49.43
2022-09-23T15:33:32.666Z,50.06
2022-09-23T15:35:59.168Z,48.96
2022-09-23T15:38:27.258Z,49.75
2022-09-23T15:40:54.401Z,50.14
2022-09-23T15:43:24.148Z,50.72
2022-09-23T15:46:05.006Z,51.12
2022-09-23T15:48:38.799Z,51.23
2022-09-23T15:51:08.163Z,52.13
2022-09-23T15:53:35.616Z,53.10
2022-09-23T15:56:02.377Z,53.51
2022-09-23T15:58:29.056Z,54.09
2022-09-23T16:00:57.176Z,53.04
2022-09-23T16:03:30.892Z,54.66
2022-09-23T16:06:01.007Z,54.29
2022-09-23T16:08:28.381Z,54.01
2022-09-23T16:10:55.527Z,54.41
2022-09-23T16:13:22.284Z,55.63
2022-09-23T16:15:48.931Z,56.05
2022-09-23T16:18:15.585Z,57.03
2022-09-23T16:20:44.803Z,56.96
2022-09-23T16:23:34.545Z,55.25
2022-09-23T16:26:06.564Z,58.17
2022-09-23T16:28:33.200Z,59.50
2022-09-23T16:30:59.766Z,58.56
2022-09-23T16:33:27.716Z,58.75
2022-09-23T16:35:54.617Z,59.87
2022-09-23T16:38:21.204Z,61.33
2022-09-23T16:40:47.825Z,62.06
2022-09-23T16:43:14.578Z,62.44
2022-09-23T16:45:41.286Z,63.17
2022-09-23T16:48:07.880Z,62.72
2022-09-23T16:50:34.407Z,63.19
2022-09-23T16:53:01.374Z,63.84
2022-09-23T16:55:27.954Z,64.72
2022-09-23T16:57:55.442Z,65.03
2022-09-23T17:00:41.784Z,65.97
2022-09-23T17:03:29.917Z,66.41
2022-09-23T17:05:56.717Z,66.34
2022-09-23T17:08:23.291Z,65.23
2022-09-23T17:10:58.361Z,67.97
2022-09-23T17:13:26.089Z,70.45
2022-09-23T17:15:53.336Z,71.21
2022-09-23T17:18:20.767Z,72.11
2022-09-23T17:21:03.595Z,73.34
2022-09-23T17:23:31.761Z,73.34
2022-09-23T17:25:59.970Z,75.10
2022-09-23T17:28:26.871Z,75.59
2022-09-23T17:31:01.999Z,75.89
2022-09-23T17:33:30.874Z,76.31
2022-09-23T17:36:00.184Z,76.70
2022-09-23T17:38:29.286Z,76.48
2022-09-23T17:40:59.187Z,76.45
2022-09-23T17:43:26.026Z,77.29
2022-09-23T17:45:54.650Z,78.20
2022-09-23T17:48:25.502Z,78.30
2022-09-23T17:50:59.497Z,77.81
2022-09-23T17:53:26.264Z,78.77
2022-09-23T17:56:01.106Z,79.63
2022-09-23T17:58:28.876Z,79.33
2022-09-23T18:00:56.799Z,77.60
2022-09-23T18:03:24.695Z,77.47
2022-09-23T18:05:52.000Z,77.83
2022-09-23T18:08:18.751Z,78.20
2022-09-23T18:10:45.284Z,77.70
2022-09-23T18:13:12.115Z,78.88
2022-09-23T18:15:39.847Z,78.71
2022-09-23T18:18:06.862Z,79.78
2022-09-23T18:20:33.539Z,81.74
2022-09-23T18:23:00.180Z,81.44
2022-09-23T18:25:39.312Z,82.43
2022-09-23T18:28:06.551Z,82.23
2022-09-23T18:30:33.610Z,82.74
2022-09-23T18:33:00.344Z,84.43
2022-09-23T18:35:26.857Z,84.23
2022-09-23T18:37:53.435Z,84.53
2022-09-23T18:40:20.066Z,85.49
2022-09-23T18:42:47.265Z,84.48
2022-09-23T18:45:13.783Z,84.18
2022-09-23T18:47:58.881Z,82.60
2022-09-23T18:50:40.379Z,84.34
2022-09-23T18:53:07.612Z,85.39
2022-09-23T18:55:35.503Z,86.23
2022-09-23T18:58:02.400Z,86.15
2022-09-23T19:00:30.035Z,85.96
2022-09-23T19:02:56.695Z,87.34
2022-09-23T19:05:23.235Z,86.82
2022-09-23T19:07:49.797Z,86.23
2022-09-23T19:10:16.461Z,86.63
2022-09-23T19:12:42.960Z,86.59
2022-09-23T19:15:09.637Z,88.49
2022-09-23T19:17:36.181Z,89.06
2022-09-23T19:20:02.732Z,88.55
2022-09-23T19:22:30.455Z,88.77
2022-09-23T19:24:56.959Z,88.22
2022-09-23T19:27:23.510Z,89.29
2022-09-23T19:29:50.261Z,88.98
2022-09-23T19:32:16.972Z,89.33
2022-09-23T19:34:45.205Z,89.62
2022-09-23T19:37:12.216Z,89.97
2022-09-23T19:39:40.668Z,91.40
2022-09-23T19:42:07.706Z,91.05
2022-09-23T19:44:37.807Z,91.18
2022-09-23T19:47:04.745Z,91.64
2022-09-23T19:49:31.387Z,90.98
2022-09-23T19:51:57.893Z,91.96
2022-09-23T19:54:26.964Z,91.81
2022-09-23T19:56:53.628Z,92.75
2022-09-23T19:59:20.139Z,93.01
2022-09-23T20:01:48.086Z,94.25
2022-09-23T20:04:15.838Z,94.70
2022-09-23T20:06:42.767Z,94.97
2022-09-23T20:09:09.442Z,94.83
2022-09-23T20:11:36.140Z,95.10
2022-09-23T20:14:04.943Z,94.97
2022-09-23T20:16:37.107Z,95.23
2022-09-23T20:19:04.856Z,94.94
2022-09-23T20:21:31.985Z,94.97
2022-09-23T20:23:58.699Z,94.86
2022-09-23T20:26:44.388Z,95.44
2022-09-23T20:29:11.328Z,95.32
2022-09-23T20:31:40.527Z,96.36
2022-09-23T20:34:08.278Z,96.90
2022-09-23T20:36:36.053Z,96.42
2022-09-23T20:39:07.991Z,96.35
2022-09-23T20:41:37.895Z,96.91
2022-09-23T20:44:07.530Z,97.37
2022-09-23T20:46:35.075Z,97.57
2022-09-23T20:49:02.472Z,98.31
2022-09-23T20:51:29.026Z,98.38
2022-09-23T20:53:55.663Z,99.81
2022-09-23T20:56:22.847Z,99.38
2022-09-23T20:58:50.787Z,99.78
2022-09-23T21:01:18.450Z,100.00
2022-09-23T21:03:48.264Z,99.94
2022-09-23T21:06:17.330Z,100.00
2022-09-23T21:08:44.662Z,100.00
2022-09-23T21:11:14.989Z,100.00
2022-09-23T21:13:49.182Z,100.00
2022-09-23T21:16:17.438Z,100.00
2022-09-23T21:18:44.667Z,100.00
2022-09-23T21:21:14.103Z,100.00
2022-09-23T21:23:42.034Z,100.00
2022-09-23T21:26:13.885Z,100.00
2022-09-23T21:28:45.172Z,100.00
2022-09-23T21:31:23.266Z,100.00
2022-09-23T21:33:54.138Z,100.00
2022-09-23T21:36:21.718Z,100.00
2022-09-23T21:38:48.226Z,100.00
2022-09-23T21:41:15.312Z,100.00
2022-09-23T21:43:41.898Z,100.00
2022-09-23T21:46:13.576Z,100.00
2022-09-23T21:48:41.941Z,100.00
2022-09-23T21:51:14.127Z,100.00
2022-09-23T21:53:41.830Z,100.00
2022-09-23T21:56:10.894Z,100.00
2022-09-23T21:58:39.065Z,100.00
2022-09-23T22:01:12.816Z,100.00
2022-09-23T22:03:39.725Z,100.00
2022-09-23T22:06:08.774Z,100.00
2022-09-23T22:08:38.234Z,100.00
2022-09-23T22:11:33.346Z,100.00
2022-09-23T22:14:02.388Z,100.00
2022-09-23T22:16:29.597Z,100.00
2022-09-23T22:18:58.396Z,100.00
2022-09-23T22:21:27.339Z,100.00
2022-09-23T22:23:57.058Z,100.00
2022-09-23T22:26:24.823Z,100.00
2022-09-23T22:29:10.244Z,100.00
2022-09-23T22:31:55.780Z,100.00
2022-09-23T22:34:48.632Z,100.00
2022-09-23T22:37:17.836Z,100.00
2022-09-23T22:39:44.817Z,100.00
2022-09-23T22:42:13.124Z,100.00
2022-09-23T22:44:39.829Z,100.00
2022-09-23T22:47:06.529Z,100.00
2022-09-23T22:49:33.139Z,100.00
2022-09-23T22:51:59.993Z,100.00
2022-09-23T22:54:33.783Z,100.00
2022-09-23T22:57:03.996Z,100.00
2022-09-23T22:59:30.634Z,100.00
2022-09-23T23:02:00.128Z,100.00
2022-09-23T23:04:27.262Z,100.00
2022-09-23T23:06:53.801Z,100.00
2022-09-23T23:09:20.374Z,100.00
2022-09-23T23:11:47.393Z,100.00
2022-09-23T23:14:16.825Z,100.00
2022-09-23T23:16:45.189Z,100.00
2022-09-23T23:19:14.267Z,100.00
2022-09-23T23:21:44.947Z,100.00
2022-09-23T23:24:16.930Z,100.00
2022-09-23T23:26:44.133Z,100.00
2022-09-23T23:29:16.034Z,100.00
2022-09-23T23:31:43.294Z,100.00
2022-09-23T23:34:28.241Z,100.00
2022-09-23T23:36:55.361Z,100.00
2022-09-23T23:39:23.762Z,100.00
2022-09-23T23:41:55.215Z,100.00
2022-09-23T23:44:23.715Z,100.00
2022-09-23T23:46:50.805Z,100.00
2022-09-23T23:49:17.444Z,100.00
2022-09-23T23:51:43.969Z,100.00
2022-09-23T23:54:11.945Z,100.00
2022-09-23T23:56:38.676Z,100.00
2022-09-23T23:59:05.211Z,100.00
